Terminal Aerodrome Forecast
Issued by NWS

Home | Current Version | Previous Version | Text Only | Print | Product List | Glossary On
Versions: 1 2 3 4 5 6 7 8 9 10 11 12 13 14 15 16 17
000
FTUS42 TJSJ 290500
TAFIST
TAF
TIST 290526Z 2906/3006 11006KT P6SM SCT025
     FM291300 13012KT P6SM SCT025
     FM292300 07008KT P6SM SCT025=

USA.gov is the U.S. government's official web portal to all federal, state and local government web resources and services.